Time;durP1;ratioP1;P1;durP2;ratioP2;P2;SDS_P1;SDS_P2;PMS_P1;PMS_P2;Temp;Humidity;BMP_temperature;BMP_pressure;BME280_temperature;BME280_humidity;BME280_pressure;Samples;Min_cycle;Max_cycle;Signal;HPM_P1;HPM_P2
2021/06/22 00:02:23;;;;;;;135.22;26.40;;;;;;;23.79;66.03;100129.88;1727662;81;21035;-76
2021/06/22 00:04:49;;;;;;;115.60;23.20;;;;;;;23.77;65.96;100126.06;1728130;81;21567;-76
2021/06/22 00:07:19;;;;;;;82.72;18.40;;;;;;;23.75;66.32;100122.78;1729743;81;21043;-76
2021/06/22 00:09:43;;;;;;;91.63;18.70;;;;;;;23.79;66.92;100127.98;1728334;81;21098;-76
2021/06/22 00:12:13;;;;;;;104.12;17.40;;;;;;;23.83;66.59;100120.88;1724882;81;20998;-76
2021/06/22 00:14:42;;;;;;;125.55;26.12;;;;;;;23.80;66.37;100136.95;1726872;82;21067;-75
2021/06/22 00:17:09;;;;;;;117.03;19.52;;;;;;;23.47;65.82;100112.89;1699421;83;21002;-74
2021/06/22 00:19:37;;;;;;;130.72;25.20;;;;;;;23.59;66.87;100141.67;1716885;81;21054;-76
2021/06/22 00:22:04;;;;;;;119.97;19.87;;;;;;;23.47;66.29;100134.66;1727885;81;20953;-76
2021/06/22 00:24:30;;;;;;;87.35;18.20;;;;;;;23.42;67.30;100131.95;1728313;81;21054;-76
2021/06/22 00:26:57;;;;;;;115.08;22.95;;;;;;;23.35;67.43;100134.15;1728201;81;21062;-76
2021/06/22 00:29:24;;;;;;;146.32;26.73;;;;;;;23.31;67.15;100135.25;1728800;81;20968;-75
2021/06/22 00:31:51;;;;;;;125.00;24.23;;;;;;;23.34;67.15;100136.62;1730898;81;21020;-76
2021/06/22 00:34:17;;;;;;;144.77;24.07;;;;;;;23.33;67.15;100141.22;1717690;81;20970;-75
2021/06/22 00:36:43;;;;;;;124.58;27.17;;;;;;;23.32;66.77;100137.44;1751223;80;21032;-76
2021/06/22 00:39:09;;;;;;;108.72;22.65;;;;;;;23.33;66.65;100139.05;1754175;80;21035;-76
2021/06/22 00:41:37;;;;;;;142.47;25.52;;;;;;;23.36;66.59;100139.88;1752186;80;20996;-75
2021/06/22 00:44:07;;;;;;;123.92;24.75;;;;;;;23.43;66.09;100146.35;1751464;81;21646;-77
2021/06/22 00:46:37;;;;;;;129.45;25.62;;;;;;;23.45;66.22;100149.08;1751282;80;20993;-75
2021/06/22 00:49:05;;;;;;;125.00;24.27;;;;;;;23.43;66.13;100146.35;1750131;82;21051;-76
2021/06/22 00:51:36;;;;;;;121.10;23.07;;;;;;;23.37;66.24;100137.95;1749281;80;21025;-76
2021/06/22 00:54:04;;;;;;;121.42;20.68;;;;;;;23.31;66.51;100139.88;1726276;80;21026;-76
2021/06/22 00:56:33;;;;;;;149.47;27.75;;;;;;;23.28;66.69;100133.11;1754399;80;21037;-75
2021/06/22 00:58:59;;;;;;;129.25;24.50;;;;;;;23.28;66.45;100129.55;1750352;80;21022;-75
2021/06/22 01:01:27;;;;;;;125.45;26.20;;;;;;;23.23;66.46;100126.31;1742311;81;21026;-75
2021/06/22 01:03:53;;;;;;;118.22;24.57;;;;;;;23.15;66.78;100124.70;1746910;80;21017;-76
2021/06/22 01:06:22;;;;;;;130.00;24.47;;;;;;;23.08;66.91;100130.45;1740395;80;21460;-74
2021/06/22 01:09:05;;;;;;;101.58;20.60;;;;;;;23.08;66.94;100126.38;1742774;81;21021;-75
2021/06/22 01:11:36;;;;;;;106.85;21.73;;;;;;;23.07;66.96;100128.26;1743029;81;21052;-76
2021/06/22 01:14:03;;;;;;;69.80;17.77;;;;;;;23.06;67.54;100121.21;1752631;80;21525;-76
2021/06/22 01:16:30;;;;;;;99.17;20.57;;;;;;;23.04;68.04;100123.39;1727858;81;21579;-75
2021/06/22 01:19:04;;;;;;;126.58;23.20;;;;;;;23.03;67.33;100119.56;1701756;83;21056;-75
2021/06/22 01:21:37;;;;;;;118.25;24.80;;;;;;;23.02;66.75;100113.84;1742544;80;21030;-75
2021/06/22 01:24:21;;;;;;;104.05;19.23;;;;;;;22.98;66.58;100113.61;1747888;80;21015;-75
2021/06/22 01:26:54;;;;;;;94.45;19.20;;;;;;;22.92;66.58;100122.84;1725544;82;21069;-75
2021/06/22 01:29:21;;;;;;;118.35;21.97;;;;;;;22.92;66.50;100122.84;1753104;80;21401;-76
2021/06/22 01:31:50;;;;;;;96.28;18.70;;;;;;;22.93;66.66;100121.77;1728657;80;21086;-76
2021/06/22 01:34:24;;;;;;;103.22;19.73;;;;;;;22.96;67.22;100113.59;1748647;80;21023;-75
2021/06/22 01:36:51;;;;;;;82.82;19.30;;;;;;;23.03;66.92;100110.88;1732425;81;21034;-75
2021/06/22 01:39:18;;;;;;;77.87;17.77;;;;;;;23.09;66.60;100110.32;1746104;81;21168;-75
2021/06/22 01:41:44;;;;;;;79.58;20.48;;;;;;;23.06;67.58;100102.19;1727432;81;21073;-76
2021/06/22 01:44:12;;;;;;;78.45;17.27;;;;;;;22.97;68.10;100096.21;1727253;81;21102;-75
2021/06/22 01:46:38;;;;;;;86.70;17.12;;;;;;;22.85;68.56;100095.97;1731172;81;21034;-76
2021/06/22 01:49:07;;;;;;;97.80;20.32;;;;;;;22.80;68.28;100098.69;1727638;81;21006;-75
2021/06/22 01:51:35;;;;;;;113.68;21.85;;;;;;;22.76;66.74;100097.63;1726467;81;20985;-76
2021/06/22 01:54:02;;;;;;;94.05;18.75;;;;;;;22.77;66.12;100101.14;1736352;81;21010;-76
2021/06/22 01:56:31;;;;;;;102.15;19.67;;;;;;;22.73;66.11;100103.59;1717885;81;21105;-75
2021/06/22 01:59:01;;;;;;;91.25;18.40;;;;;;;22.70;66.11;100096.02;1731731;81;21101;-75
2021/06/22 02:01:47;;;;;;;94.40;17.52;;;;;;;22.71;65.61;100093.55;1733693;81;21481;-74
2021/06/22 02:04:16;;;;;;;117.42;20.90;;;;;;;22.77;64.33;100097.06;1727103;81;21070;-75
2021/06/22 02:06:44;;;;;;;83.87;18.00;;;;;;;22.77;64.94;100097.06;1738396;81;21029;-75
2021/06/22 02:09:29;;;;;;;;;;;;;;;22.71;64.07;100097.63;1730523;81;21553;-75
2021/06/22 02:11:57;;;;;;;85.47;16.52;;;;;;;22.70;64.35;100100.89;1729726;81;20100;-74
2021/06/22 02:14:24;;;;;;;92.60;16.32;;;;;;;22.65;64.29;100099.54;1725841;81;21034;-75
2021/06/22 02:16:51;;;;;;;71.45;16.30;;;;;;;22.72;63.98;100105.50;1734230;81;21042;-75
2021/06/22 02:19:19;;;;;;;78.83;17.05;;;;;;;22.81;64.19;100110.37;1708985;83;21023;-75
2021/06/22 02:21:46;;;;;;;81.55;17.02;;;;;;;22.87;64.35;100099.78;1727362;81;21507;-75
2021/06/22 02:24:12;;;;;;;82.47;18.40;;;;;;;22.92;64.22;100097.02;1690212;82;22277;-74
2021/06/22 02:26:39;;;;;;;86.40;18.12;;;;;;;22.96;63.66;100094.56;1678108;84;21058;-75
2021/06/22 02:29:06;;;;;;;71.65;17.17;;;;;;;22.99;63.89;100093.47;1679652;84;21018;-76
2021/06/22 02:31:34;;;;;;;78.50;15.75;;;;;;;23.04;63.59;100090.78;1682681;84;21565;-74
2021/06/22 02:34:01;;;;;;;81.12;17.27;;;;;;;23.13;63.20;100089.64;1676463;84;21391;-76
2021/06/22 02:36:28;;;;;;;87.88;16.15;;;;;;;23.18;63.17;100092.90;1700826;82;21157;-75
2021/06/22 02:38:54;;;;;;;80.97;17.02;;;;;;;23.21;62.57;100101.87;1723973;82;21042;-76
2021/06/22 02:41:21;;;;;;;79.50;15.28;;;;;;;23.22;62.41;100093.41;1724027;82;21133;-77
2021/06/22 02:43:49;;;;;;;66.50;13.70;;;;;;;23.29;62.29;100093.12;1709276;82;21047;-76
2021/06/22 02:46:16;;;;;;;74.62;14.03;;;;;;;23.41;62.24;100094.95;1740515;80;20989;-76
2021/06/22 02:48:42;;;;;;;59.63;13.55;;;;;;;23.56;60.83;100087.81;1753431;80;21521;-76
2021/06/22 02:51:10;;;;;;;66.80;15.13;;;;;;;23.70;60.66;100095.07;1755759;80;21133;-76
2021/06/22 02:53:39;;;;;;;65.62;13.78;;;;;;;23.84;60.11;100099.91;1748823;80;21081;-76
2021/06/22 02:56:05;;;;;;;62.85;12.63;;;;;;;23.98;59.31;100093.27;1745022;80;21085;-75
2021/06/22 02:58:39;;;;;;;70.57;15.98;;;;;;;24.14;59.17;100093.42;1757604;80;21437;-76
2021/06/22 03:01:06;;;;;;;67.03;14.15;;;;;;;24.31;58.98;100098.45;1739369;80;21514;-77
2021/06/22 03:03:33;;;;;;;91.20;14.83;;;;;;;24.33;59.18;100094.09;1738375;81;20990;-77
2021/06/22 03:06:00;;;;;;;74.62;15.60;;;;;;;24.37;58.94;100095.14;1724088;82;21019;-77
2021/06/22 03:08:32;;;;;;;88.07;17.05;;;;;;;24.47;58.81;100096.42;1724114;82;21099;-77
2021/06/22 03:10:59;;;;;;;74.05;15.32;;;;;;;24.61;58.34;100100.11;1737326;81;21097;-77
2021/06/22 03:13:27;;;;;;;82.62;17.73;;;;;;;24.83;58.11;100100.98;1734353;81;21136;-83
2021/06/22 03:15:54;;;;;;;74.67;14.58;;;;;;;25.06;56.98;100097.98;1750951;82;21554;-83
2021/06/22 03:18:22;;;;;;;75.78;15.05;;;;;;;25.22;56.13;100099.16;1746921;81;21097;-83
2021/06/22 03:21:09;;;;;;;67.85;14.05;;;;;;;25.35;55.42;100099.83;1613951;79;21506;31
2021/06/22 03:23:36;;;;;;;62.35;13.03;;;;;;;25.43;55.58;100094.30;1562690;88;21056;-85
2021/06/22 03:26:03;;;;;;;70.60;13.60;;;;;;;25.67;53.63;100098.31;1590412;88;21076;-91
2021/06/22 03:28:30;;;;;;;63.78;12.65;;;;;;;25.88;53.50;100098.84;1602579;88;21037;-87
2021/06/22 03:31:09;;;;;;;70.92;14.25;;;;;;;26.08;52.94;100093.63;1629342;87;21017;-85
2021/06/22 03:33:37;;;;;;;61.25;12.55;;;;;;;26.35;52.02;100097.02;1635580;83;21014;-89
2021/06/22 03:36:04;;;;;;;61.28;13.15;;;;;;;26.51;51.06;100099.47;1634620;86;20975;-89
2021/06/22 03:38:31;;;;;;;68.00;13.85;;;;;;;26.43;51.25;100102.34;1626762;87;20998;-90
2021/06/22 03:40:59;;;;;;;57.08;11.65;;;;;;;26.26;51.66;100100.17;1640894;86;21251;-90
2021/06/22 03:43:26;;;;;;;71.00;13.98;;;;;;;26.17;51.94;100106.86;1634554;87;21659;-93
2021/06/22 03:45:55;;;;;;;65.55;14.78;;;;;;;26.16;52.25;100105.80;1624480;86;21517;-89
2021/06/22 03:48:22;;;;;;;65.92;13.62;;;;;;;26.19;53.29;100098.37;1617124;87;21134;-89
2021/06/22 03:50:48;;;;;;;67.67;13.03;;;;;;;26.37;52.28;100100.79;1601623;88;21074;-85
2021/06/22 03:53:15;;;;;;;52.27;12.10;;;;;;;26.50;52.25;100097.27;1612662;87;21061;-89
2021/06/22 03:55:41;;;;;;;61.75;12.90;;;;;;;26.57;51.71;100099.62;1616870;87;21036;-91
2021/06/22 03:58:09;;;;;;;62.05;13.15;;;;;;;26.66;50.91;100102.52;1610149;88;21044;-89
2021/06/22 04:00:41;;;;;;;57.20;11.45;;;;;;;26.69;50.61;100094.53;1631091;86;21105;-89
2021/06/22 04:03:13;;;;;;;56.95;12.07;;;;;;;26.68;50.46;100100.29;1623334;87;21027;-90
2021/06/22 04:05:41;;;;;;;47.62;10.88;;;;;;;26.59;50.41;100095.50;1610256;88;21043;-89
2021/06/22 04:08:14;;;;;;;55.00;11.83;;;;;;;26.47;50.63;100097.09;1617157;88;21102;-94
2021/06/22 04:10:45;;;;;;;62.50;13.30;;;;;;;26.32;51.15;100099.53;1616640;88;20996;-91
2021/06/22 04:13:09;;;;;;;61.25;12.07;;;;;;;26.27;51.25;100109.98;1617134;88;21010;-90
2021/06/22 04:15:35;;;;;;;59.27;12.03;;;;;;;26.40;51.67;100111.13;1625240;87;21069;-87
2021/06/22 04:18:05;;;;;;;50.90;9.73;;;;;;;26.55;50.88;100112.78;1597889;89;21035;-89
2021/06/22 04:20:35;;;;;;;61.70;12.03;;;;;;;26.52;50.71;100112.84;1624427;85;21069;-89
2021/06/22 04:23:06;;;;;;;47.93;10.23;;;;;;;26.57;50.76;100112.73;1629688;86;21024;-91
2021/06/22 04:25:33;;;;;;;45.38;9.78;;;;;;;26.71;49.26;100111.97;1649927;86;21094;-91
2021/06/22 04:28:05;;;;;;;46.63;10.88;;;;;;;26.82;49.06;100109.30;1642317;86;21058;-92
2021/06/22 04:30:33;;;;;;;53.02;10.95;;;;;;;26.95;49.31;100103.02;1654285;86;20998;-91
2021/06/22 04:33:01;;;;;;;39.53;9.90;;;;;;;27.22;48.73;100100.05;1665400;86;21062;-90
2021/06/22 04:35:30;;;;;;;44.18;9.63;;;;;;;27.51;47.41;100101.08;1645316;85;21064;-91
2021/06/22 04:37:58;;;;;;;43.52;8.90;;;;;;;27.77;47.25;100098.57;1636331;86;20998;-87
2021/06/22 04:40:25;;;;;;;34.95;7.50;;;;;;;28.03;46.33;100108.97;1627968;86;21105;-87
2021/06/22 04:42:52;;;;;;;49.67;9.03;;;;;;;28.29;45.92;100100.09;1647994;86;21052;-88
2021/06/22 04:45:22;;;;;;;41.20;9.50;;;;;;;28.43;45.81;100109.62;1655130;84;21129;-89
2021/06/22 04:47:48;;;;;;;41.48;8.65;;;;;;;28.51;44.32;100108.85;1658965;85;21336;-88
2021/06/22 04:50:13;;;;;;;32.80;7.78;;;;;;;28.65;44.45;100110.16;1638719;86;21059;-89
2021/06/22 04:52:40;;;;;;;47.43;8.73;;;;;;;28.74;44.22;100109.63;1657735;85;21059;-89
2021/06/22 04:55:15;;;;;;;46.80;9.15;;;;;;;28.80;44.33;100103.45;1642132;84;21088;-90
2021/06/22 04:57:45;;;;;;;42.08;8.70;;;;;;;28.85;43.52;100097.83;1704666;84;20981;-89
2021/06/22 05:00:16;;;;;;;39.88;8.53;;;;;;;28.89;44.51;100096.06;1674906;84;21001;-88
2021/06/22 05:02:44;;;;;;;39.23;7.75;;;;;;;28.97;43.53;100091.19;1690916;84;21152;-91
2021/06/22 05:05:13;;;;;;;46.35;8.80;;;;;;;29.15;43.71;100088.52;1701389;84;21053;-91
2021/06/22 05:07:41;;;;;;;45.73;8.15;;;;;;;29.31;43.29;100089.12;1687476;84;21009;-91
2021/06/22 05:10:09;;;;;;;43.30;7.72;;;;;;;29.21;42.70;100092.72;1690698;84;21009;-89
2021/06/22 05:12:35;;;;;;;32.13;7.53;;;;;;;29.18;41.95;100089.23;1696338;84;21022;-90
2021/06/22 05:15:03;;;;;;;36.63;6.78;;;;;;;29.33;42.38;100083.31;1698432;84;21580;-92
2021/06/22 05:17:30;;;;;;;27.15;5.83;;;;;;;29.57;41.52;100092.44;1682394;84;21083;-92
2021/06/22 05:20:02;;;;;;;17.65;3.67;;;;;;;29.85;39.55;100094.33;1677357;84;21804;-93
2021/06/22 05:22:26;;;;;;;23.55;4.72;;;;;;;30.16;38.36;100080.15;1662301;84;21107;-84
2021/06/22 05:24:52;;;;;;;26.35;3.42;;;;;;;30.30;37.97;100080.77;1611665;87;21036;-82
2021/06/22 05:27:18;;;;;;;17.60;3.37;;;;;;;30.54;38.02;100076.70;1596389;88;21027;-84
2021/06/22 05:29:44;;;;;;;18.05;3.60;;;;;;;30.66;36.71;100076.80;1591664;88;21034;-82
2021/06/22 05:32:10;;;;;;;27.25;6.10;;;;;;;30.70;36.58;100079.12;1603857;88;20990;-81
2021/06/22 05:34:38;;;;;;;21.55;4.15;;;;;;;30.76;37.31;100077.00;1590512;87;21327;-90
2021/06/22 05:37:04;;;;;;;19.60;2.90;;;;;;;30.86;36.48;100078.02;1621258;84;21011;-90
2021/06/22 05:39:35;;;;;;;12.70;1.70;;;;;;;30.98;36.25;100081.46;1613544;84;21023;-90
2021/06/22 05:42:03;;;;;;;14.30;1.47;;;;;;;31.19;34.55;100091.95;1621801;87;20972;-86
2021/06/22 05:44:29;;;;;;;13.13;2.12;;;;;;;31.32;33.85;100100.28;1622716;85;21017;-82
2021/06/22 05:46:55;;;;;;;13.60;2.17;;;;;;;31.49;33.56;100101.56;1597997;89;21044;-84
2021/06/22 05:49:22;;;;;;;21.57;2.25;;;;;;;31.57;34.00;100099.34;1627243;86;21082;-91
2021/06/22 05:51:48;;;;;;;11.88;2.15;;;;;;;31.65;33.45;100114.73;1617039;84;21085;-83
2021/06/22 05:54:14;;;;;;;10.03;1.77;;;;;;;31.65;33.99;100101.78;1598166;85;21099;-82
2021/06/22 05:56:40;;;;;;;7.87;1.42;;;;;;;31.73;34.04;100108.37;1618278;87;21073;-82
2021/06/22 05:59:06;;;;;;;9.08;1.70;;;;;;;31.88;33.88;100105.57;1596482;88;21037;-82
2021/06/22 06:01:32;;;;;;;12.55;2.45;;;;;;;31.95;34.21;100103.08;1606107;88;20986;-83
2021/06/22 06:03:58;;;;;;;12.37;1.82;;;;;;;31.92;34.19;100093.52;1579915;89;21175;-83
2021/06/22 06:06:24;;;;;;;8.70;1.60;;;;;;;31.90;34.51;100082.03;1587395;88;20990;-81
2021/06/22 06:08:49;;;;;;;12.10;1.47;;;;;;;31.79;34.59;100087.14;1602124;88;21041;-81
2021/06/22 06:11:15;;;;;;;10.18;1.50;;;;;;;31.77;34.74;100087.26;1606740;88;21066;-81
2021/06/22 06:13:42;;;;;;;13.00;2.87;;;;;;;31.80;35.04;100094.28;1579468;89;21050;-82
2021/06/22 06:16:08;;;;;;;17.10;2.33;;;;;;;31.82;34.67;100087.06;1602562;88;21066;-82
2021/06/22 06:18:35;;;;;;;8.15;1.40;;;;;;;31.84;34.54;100082.59;1601988;88;21057;-81
2021/06/22 06:21:02;;;;;;;13.68;2.15;;;;;;;31.85;34.44;100086.95;1613123;88;21133;-82
2021/06/22 06:23:33;;;;;;;14.10;2.08;;;;;;;31.86;34.53;100086.61;1629300;86;21101;-80
2021/06/22 06:25:57;;;;;;;10.15;1.27;;;;;;;31.88;34.87;100089.83;1643757;86;21100;-83
2021/06/22 06:28:29;;;;;;;10.70;1.95;;;;;;;31.92;34.21;100085.83;1641462;86;21166;-81
2021/06/22 06:30:54;;;;;;;13.60;1.92;;;;;;;32.00;34.10;100082.17;1655672;85;21128;-80
2021/06/22 06:33:20;;;;;;;6.47;1.45;;;;;;;32.00;34.21;100081.63;1636063;86;21073;-82
2021/06/22 06:35:46;;;;;;;12.45;1.65;;;;;;;31.81;34.43;100071.66;1661531;85;20998;-85
2021/06/22 06:38:12;;;;;;;17.95;2.05;;;;;;;31.59;35.17;100062.62;1623651;86;21050;-82
2021/06/22 06:40:39;;;;;;;9.05;1.32;;;;;;;31.56;34.94;100052.27;1647852;85;21477;-83
2021/06/22 06:43:06;;;;;;;14.65;2.02;;;;;;;31.63;34.71;100060.80;1652918;85;21000;-81
2021/06/22 06:45:33;;;;;;;10.65;1.77;;;;;;;31.80;34.57;100060.41;1658932;85;21064;-79
2021/06/22 06:47:59;;;;;;;8.63;1.65;;;;;;;31.88;34.35;100050.45;1668815;85;21015;-80
2021/06/22 06:50:25;;;;;;;12.68;1.42;;;;;;;31.86;34.36;100051.37;1624738;87;21179;-82
2021/06/22 06:52:51;;;;;;;15.70;2.08;;;;;;;31.94;34.39;100065.05;1626291;86;21485;-81
2021/06/22 06:55:27;;;;;;;8.15;1.62;;;;;;;31.23;33.87;99929.09;1634051;86;21093;-80
2021/06/22 06:58:03;;;;;;;18.62;1.75;;;;;;;32.29;33.23;100070.24;1672793;84;21578;-80
2021/06/22 07:00:31;;;;;;;;;;;;;;;32.33;33.31;100067.03;1654954;85;21031;-81
2021/06/22 07:02:58;;;;;;;14.13;2.12;;;;;;;32.36;33.37;100073.25;1678449;85;20086;-79
2021/06/22 07:05:24;;;;;;;13.55;1.80;;;;;;;32.20;33.38;100097.09;1653660;85;21548;-80
2021/06/22 07:07:51;;;;;;;18.27;1.77;;;;;;;32.14;33.56;100110.30;1646388;86;21598;-80
2021/06/22 07:10:17;;;;;;;9.88;1.90;;;;;;;32.25;33.21;100127.22;1658545;85;21042;-80
2021/06/22 07:12:45;;;;;;;11.08;1.80;;;;;;;32.23;33.50;100123.17;1657352;85;21068;-78
2021/06/22 07:15:12;;;;;;;8.83;1.37;;;;;;;31.50;33.55;100027.45;1682473;85;21045;-80
2021/06/22 07:17:39;;;;;;;10.18;2.45;;;;;;;32.08;33.71;100108.90;1664989;85;21074;-83
2021/06/22 07:20:07;;;;;;;19.20;2.15;;;;;;;31.99;33.91;100096.54;1629766;86;21139;-80
2021/06/22 07:22:40;;;;;;;12.82;1.62;;;;;;;31.91;34.06;100104.33;1661355;85;21249;-81
2021/06/22 07:25:08;;;;;;;26.87;2.58;;;;;;;31.78;33.59;100103.45;1663115;85;21042;-81
2021/06/22 07:27:50;;;;;;;15.38;2.33;;;;;;;31.68;33.71;100123.13;1660917;83;21033;-80
2021/06/22 07:30:23;;;;;;;20.40;2.90;;;;;;;31.58;33.86;100114.70;1665823;85;21003;-81
2021/06/22 07:36:01;;;;;;;24.65;3.25;;;;;;;31.60;33.62;100109.66;1585550;88;21050;-80
2021/06/22 07:38:27;;;;;;;17.77;2.85;;;;;;;31.71;33.33;100110.66;1596410;88;21104;-80
2021/06/22 07:40:59;;;;;;;29.57;3.52;;;;;;;31.80;33.49;100111.39;1597220;88;21081;-81
2021/06/22 07:43:41;;;;;;;33.20;3.90;;;;;;;31.82;32.68;100121.50;1602946;86;21625;-80
2021/06/22 07:46:16;;;;;;;29.63;3.92;;;;;;;31.73;32.78;100106.98;1634039;85;21273;-85
2021/06/22 07:48:50;;;;;;;26.82;3.37;;;;;;;31.61;33.24;100116.80;1655593;85;21393;-84
2021/06/22 08:03:41;;;;;;;57.35;7.00;;;;;;;32.49;31.58;100096.70;1787098;78;24478;-79
2021/06/22 08:06:08;;;;;;;62.53;8.60;;;;;;;32.48;31.28;100091.77;1768024;79;21142;-82
2021/06/22 08:08:38;;;;;;;46.75;6.00;;;;;;;32.20;31.05;100098.48;1755022;79;21075;-80
2021/06/22 08:11:04;;;;;;;35.68;6.47;;;;;;;31.98;31.99;100085.27;1785565;79;21026;-80
2021/06/22 08:13:32;;;;;;;41.37;6.58;;;;;;;31.55;32.93;100087.85;1700291;83;21088;-80
2021/06/22 08:16:01;;;;;;;45.75;7.33;;;;;;;31.31;33.63;100089.85;1704149;83;21057;-80
2021/06/22 08:18:27;;;;;;;79.92;12.47;;;;;;;31.23;33.50;100092.90;1700927;83;21018;-80
2021/06/22 08:20:55;;;;;;;55.85;9.20;;;;;;;31.15;31.78;100096.49;1686705;83;21095;-80
2021/06/22 08:23:21;;;;;;;44.38;8.13;;;;;;;31.03;33.27;100084.03;1686915;83;20962;-82
2021/06/22 08:25:49;;;;;;;66.22;9.88;;;;;;;30.99;33.94;100084.46;1699141;84;21191;-83
2021/06/22 08:28:16;;;;;;;75.12;11.05;;;;;;;31.02;33.63;100085.16;1698800;83;21077;-81
2021/06/22 08:30:43;;;;;;;70.60;11.35;;;;;;;30.97;33.52;100084.79;1664478;84;21090;-83
2021/06/22 08:33:11;;;;;;;81.90;15.45;;;;;;;30.94;33.41;100088.77;1677340;83;21025;-81
2021/06/22 08:35:40;;;;;;;86.55;14.90;;;;;;;30.90;32.94;100089.17;1705622;83;20996;-81
2021/06/22 08:38:10;;;;;;;81.42;14.03;;;;;;;30.82;32.42;100094.95;1674172;85;21123;-82
2021/06/22 08:40:39;;;;;;;77.62;14.85;;;;;;;30.75;32.86;100102.91;1711958;83;20992;-82
2021/06/22 08:43:10;;;;;;;101.18;17.10;;;;;;;30.73;32.38;100112.86;1653831;86;21167;-81
2021/06/22 08:45:36;;;;;;;81.02;15.35;;;;;;;30.66;32.28;100105.69;1706376;83;21004;-81
2021/06/22 08:48:06;;;;;;;88.50;14.43;;;;;;;30.64;32.10;100103.25;1700388;83;21495;-80
2021/06/22 08:50:34;;;;;;;104.72;16.32;;;;;;;30.58;32.52;100096.91;1700639;83;21048;-79
2021/06/22 08:53:01;;;;;;;86.55;15.18;;;;;;;30.47;33.10;100100.57;1680465;83;21061;-82
2021/06/22 08:55:29;;;;;;;104.50;16.32;;;;;;;30.37;34.17;100107.23;1685181;83;21041;-80
2021/06/22 08:58:01;;;;;;;106.12;18.90;;;;;;;30.33;33.63;100123.32;1698273;84;21008;-83
2021/06/22 09:00:31;;;;;;;114.10;18.45;;;;;;;30.33;33.03;100107.66;1696532;84;20986;-83
2021/06/22 09:03:13;;;;;;;101.30;16.95;;;;;;;30.35;32.68;100110.88;1702960;83;20997;-81
2021/06/22 09:05:42;;;;;;;123.33;18.70;;;;;;;30.33;33.75;100123.32;1690603;83;21041;-81
2021/06/22 09:08:27;;;;;;;101.75;16.85;;;;;;;30.30;33.15;100126.13;1698778;84;21064;-83
2021/06/22 09:11:13;;;;;;;84.67;13.78;;;;;;;30.30;33.34;100105.52;1687217;84;21065;-82
2021/06/22 09:13:42;;;;;;;74.20;14.63;;;;;;;30.30;34.38;100105.52;1696096;84;20979;-82
2021/06/22 09:16:13;;;;;;;83.42;15.48;;;;;;;30.34;34.38;100109.25;1699242;84;20958;-83
2021/06/22 09:18:44;;;;;;;94.87;17.45;;;;;;;30.45;33.46;100111.09;1700492;84;21065;-80
2021/06/22 09:21:23;;;;;;;64.82;12.78;;;;;;;30.50;32.92;100119.72;1700009;84;21038;-81
2021/06/22 09:23:55;;;;;;;74.80;14.75;;;;;;;30.52;33.09;100109.23;1697994;84;21559;-81
2021/06/22 09:26:25;;;;;;;105.22;16.80;;;;;;;30.47;33.98;100104.70;1699694;84;21009;-81
2021/06/22 09:29:07;;;;;;;94.28;15.58;;;;;;;30.49;33.45;100116.75;1698614;83;21077;-82
2021/06/22 09:31:35;;;;;;;106.80;16.85;;;;;;;30.51;33.14;100099.34;1698419;84;21515;-81
2021/06/22 09:34:02;;;;;;;91.47;16.90;;;;;;;30.58;33.25;100128.53;1695656;84;21488;-82
2021/06/22 09:36:31;;;;;;;86.30;16.23;;;;;;;30.66;31.83;100100.19;1694188;84;21042;-81
2021/06/22 09:39:08;;;;;;;87.05;17.57;;;;;;;30.68;32.21;100106.16;1692487;85;20976;-81
2021/06/22 09:41:38;;;;;;;100.00;18.52;;;;;;;30.66;31.18;100102.36;1669900;84;21085;-82
2021/06/22 09:44:13;;;;;;;104.23;18.90;;;;;;;30.66;30.85;100100.98;1678799;84;21045;-81
2021/06/22 09:46:45;;;;;;;97.27;18.67;;;;;;;30.73;30.36;100097.73;1656542;85;21016;-83
2021/06/22 09:49:19;;;;;;;104.35;19.35;;;;;;;30.83;30.92;100091.84;1654181;85;21145;-82
2021/06/22 09:52:00;;;;;;;102.22;15.98;;;;;;;30.96;31.07;100081.78;1658713;85;21024;-84
2021/06/22 09:54:35;;;;;;;102.50;15.80;;;;;;;31.13;31.04;100103.48;1659917;85;21089;-81
2021/06/22 09:57:14;;;;;;;94.35;17.30;;;;;;;31.19;30.74;100090.58;1683748;83;21188;-84
2021/06/22 09:59:57;;;;;;;77.60;15.78;;;;;;;31.22;30.63;100100.91;1630783;86;21110;-82
2021/06/22 10:02:27;;;;;;;93.55;15.65;;;;;;;31.18;30.72;100084.02;1639259;86;21092;-83
2021/06/22 10:04:59;;;;;;;100.60;15.72;;;;;;;31.16;30.74;100083.56;1679336;84;21021;-82
2021/06/22 10:07:28;;;;;;;78.10;15.50;;;;;;;31.18;29.90;100104.09;1653085;85;21149;-83
2021/06/22 10:10:02;;;;;;;85.17;14.50;;;;;;;31.11;29.41;100103.81;1679039;84;21062;-82
2021/06/22 10:12:31;;;;;;;78.67;15.35;;;;;;;31.10;28.23;100144.88;1695164;83;21016;-80
2021/06/22 10:15:01;;;;;;;61.85;13.35;;;;;;;31.10;28.87;100067.80;1718485;83;21640;-83
2021/06/22 10:17:29;;;;;;;70.87;15.03;;;;;;;31.15;29.40;100081.93;1706385;83;21000;-81
2021/06/22 10:19:59;;;;;;;68.92;13.22;;;;;;;31.26;29.94;100079.60;1718883;83;21069;-81
2021/06/22 10:22:28;;;;;;;69.82;14.60;;;;;;;31.24;30.08;100077.98;1721788;83;21067;-80
2021/06/22 10:24:57;;;;;;;89.72;13.70;;;;;;;31.23;30.36;100073.63;1683136;83;21044;-83
2021/06/22 10:27:25;;;;;;;83.33;13.65;;;;;;;31.25;29.75;100062.28;1684852;83;21069;-84
2021/06/22 10:29:55;;;;;;;75.45;14.58;;;;;;;31.27;29.72;100070.19;1653275;85;21023;-83
2021/06/22 10:32:26;;;;;;;82.12;13.68;;;;;;;31.30;29.58;100064.02;1687108;84;21001;-82
2021/06/22 10:34:59;;;;;;;93.03;14.85;;;;;;;31.30;29.46;100088.80;1679045;84;21024;-82
2021/06/22 10:37:39;;;;;;;82.08;14.43;;;;;;;31.22;29.99;100052.73;1659510;84;21041;-80
2021/06/22 10:40:21;;;;;;;79.70;12.88;;;;;;;31.18;29.88;100085.41;1679066;84;21748;-82
2021/06/22 10:42:52;;;;;;;94.47;15.38;;;;;;;31.15;30.03;100064.03;1671685;84;21136;-80
2021/06/22 10:45:20;;;;;;;74.35;15.35;;;;;;;31.09;30.16;100052.99;1673705;84;21009;-82
2021/06/22 10:47:50;;;;;;;84.28;15.70;;;;;;;31.12;29.80;100057.27;1675699;84;21069;-81
2021/06/22 10:50:28;;;;;;;76.87;14.93;;;;;;;31.17;29.60;100063.13;1671801;85;21013;-81
2021/06/22 10:53:08;;;;;;;80.77;15.68;;;;;;;31.22;28.61;100078.88;1673672;84;21175;-82
2021/06/22 10:55:46;;;;;;;101.35;15.30;;;;;;;31.22;27.44;100089.89;1671060;84;21668;-82
2021/06/22 10:58:17;;;;;;;71.02;14.13;;;;;;;31.18;27.00;100071.06;1692743;83;21089;-82
2021/06/22 11:00:58;;;;;;;75.62;13.98;;;;;;;31.13;27.08;100079.50;1676737;84;21081;-84
2021/06/22 11:39:29;;;;;;;;;;;;;;;30.51;28.76;100060.85;1794165;78;22209;-80
2021/06/22 11:42:14;;;;;;;75.17;12.55;;;;;;;30.55;29.05;100060.42;1753181;80;20173;-81
2021/06/22 11:44:59;;;;;;;84.62;14.95;;;;;;;30.60;29.07;100048.67;1759798;80;21037;-83
2021/06/22 11:47:38;;;;;;;68.00;12.65;;;;;;;30.71;28.57;100067.58;1715359;81;21033;-82
2021/06/22 11:50:15;;;;;;;69.27;12.78;;;;;;;30.79;28.41;100063.39;1709574;83;21510;-91
2021/06/22 11:52:45;;;;;;;;;;;;;;;30.84;28.70;100047.28;1722234;82;21052;-94
2021/06/22 11:55:16;;;;;;;109.03;15.35;;;;;;;30.85;28.53;100057.13;1715251;81;20531;-91
2021/06/22 11:57:53;;;;;;;75.32;14.63;;;;;;;30.77;29.21;100060.16;1691441;84;21111;-89
2021/06/22 12:00:24;;;;;;;70.00;14.45;;;;;;;30.82;28.99;100068.24;1672773;84;21073;-90
2021/06/22 12:02:55;;;;;;;84.47;14.98;;;;;;;30.85;28.84;100046.95;1704267;83;20999;-90
2021/06/22 12:05:26;;;;;;;84.30;13.95;;;;;;;30.88;28.96;100050.17;1689617;84;21058;-89
2021/06/22 12:08:02;;;;;;;68.42;12.95;;;;;;;30.88;29.09;100063.36;1701072;83;22430;-89
2021/06/22 12:10:49;;;;;;;60.48;11.85;;;;;;;30.90;29.45;100055.60;1688676;84;21050;-88
2021/06/22 12:13:41;;;;;;;86.30;15.18;;;;;;;30.93;30.09;100059.62;1673922;84;21131;-86
2021/06/22 12:16:23;;;;;;;75.83;13.53;;;;;;;30.94;29.88;100068.93;1695058;83;21041;-90